createdAt,value
2023-04-28T00:00:34.185Z,0
2023-04-28T00:01:34.778Z,0
2023-04-28T00:02:35.473Z,0
2023-04-28T00:03:36.110Z,0
2023-04-28T00:04:36.916Z,0
2023-04-28T00:05:37.587Z,0
2023-04-28T00:06:38.273Z,0
2023-04-28T00:07:38.863Z,0
2023-04-28T00:08:39.454Z,0
2023-04-28T00:09:40.052Z,0
2023-04-28T00:10:40.652Z,0
2023-04-28T00:11:41.268Z,0
2023-04-28T00:12:41.887Z,0
2023-04-28T00:13:42.481Z,0
2023-04-28T00:14:43.093Z,0
2023-04-28T00:15:43.696Z,0
2023-04-28T00:16:44.369Z,0
2023-04-28T00:17:45.088Z,0
2023-04-28T00:18:45.597Z,0
2023-04-28T00:19:46.190Z,0
2023-04-28T00:20:46.806Z,0
2023-04-28T00:21:47.395Z,0
2023-04-28T00:22:48.006Z,0
2023-04-28T00:23:48.603Z,0
2023-04-28T00:24:49.199Z,0
2023-04-28T00:25:49.789Z,0
2023-04-28T00:26:50.404Z,0
2023-04-28T00:27:51.014Z,0
2023-04-28T00:28:51.610Z,0
2023-04-28T00:29:52.207Z,0
2023-04-28T00:30:52.803Z,0
2023-04-28T00:31:53.437Z,0
2023-04-28T00:32:53.997Z,0
2023-04-28T00:33:54.578Z,0
2023-04-28T00:34:55.169Z,0
2023-04-28T00:35:55.764Z,0
2023-04-28T00:36:56.357Z,0
2023-04-28T00:37:56.980Z,0
2023-04-28T00:38:57.560Z,0
2023-04-28T00:39:58.161Z,0
2023-04-28T00:40:58.746Z,0
2023-04-28T00:41:59.364Z,0
2023-04-28T00:42:59.976Z,0
2023-04-28T00:44:00.561Z,0
2023-04-28T00:45:01.162Z,0
2023-04-28T00:46:01.785Z,0
2023-04-28T00:47:02.344Z,0
2023-04-28T00:48:02.995Z,0
2023-04-28T00:49:03.565Z,0
2023-04-28T00:50:04.147Z,0
2023-04-28T00:51:04.743Z,0
2023-04-28T00:52:05.338Z,0
2023-04-28T00:53:05.935Z,0
2023-04-28T00:54:06.526Z,0
2023-04-28T00:55:07.130Z,0
2023-04-28T00:56:07.711Z,0
2023-04-28T00:57:08.318Z,0
2023-04-28T00:58:08.922Z,0
2023-04-28T00:59:09.506Z,0
2023-04-28T01:00:10.109Z,0
2023-04-28T01:01:10.787Z,0
2023-04-28T01:02:11.366Z,0
2023-04-28T01:03:12.161Z,0
2023-04-28T01:04:13.032Z,0
2023-04-28T01:05:13.488Z,0
2023-04-28T01:06:14.076Z,0
2023-04-28T01:07:14.667Z,0
2023-04-28T01:08:15.250Z,0
2023-04-28T01:09:15.862Z,0
2023-04-28T01:10:16.498Z,0
2023-04-28T01:11:17.068Z,0
2023-04-28T01:12:17.664Z,0
2023-04-28T01:13:18.278Z,0
2023-04-28T01:14:18.878Z,0
2023-04-28T01:15:19.487Z,0
2023-04-28T01:16:20.096Z,0
2023-04-28T01:17:20.689Z,0
2023-04-28T01:18:21.260Z,0
2023-04-28T01:19:21.854Z,0
2023-04-28T01:20:22.445Z,0
2023-04-28T01:21:23.061Z,0
2023-04-28T01:22:23.651Z,0
2023-04-28T01:23:24.248Z,0
2023-04-28T01:24:24.881Z,0
2023-04-28T01:25:25.452Z,0
2023-04-28T01:26:26.043Z,0
2023-04-28T01:27:26.636Z,0
2023-04-28T01:28:27.232Z,0
2023-04-28T01:29:27.834Z,0
2023-04-28T01:30:28.427Z,0
2023-04-28T01:31:29.023Z,0
2023-04-28T01:32:29.767Z,0
2023-04-28T01:33:30.414Z,0
2023-04-28T01:34:31.010Z,0
2023-04-28T01:35:31.604Z,0
2023-04-28T01:36:32.195Z,0
2023-04-28T01:37:32.791Z,0
2023-04-28T01:38:33.383Z,0
2023-04-28T01:39:33.979Z,0
2023-04-28T01:40:34.571Z,0
2023-04-28T01:41:35.183Z,0
2023-04-28T01:42:35.778Z,0
2023-04-28T01:43:36.369Z,0
2023-04-28T01:44:36.963Z,0
2023-04-28T01:45:37.557Z,0
2023-04-28T01:46:38.238Z,0
2023-04-28T01:47:38.927Z,0
2023-04-28T01:48:39.413Z,0
2023-04-28T01:49:40.004Z,0
2023-04-28T01:50:40.618Z,0
2023-04-28T01:51:41.210Z,0
2023-04-28T01:52:41.813Z,0
2023-04-28T01:53:42.394Z,0
2023-04-28T01:54:42.997Z,0
2023-04-28T01:55:43.590Z,0
2023-04-28T01:56:44.184Z,0
2023-04-28T01:57:45.222Z,0
2023-04-28T01:58:45.847Z,0
2023-04-28T01:59:46.431Z,0
2023-04-28T02:00:47.024Z,0
2023-04-28T02:01:47.687Z,0
2023-04-28T02:02:48.365Z,0
2023-04-28T02:03:49.076Z,0
2023-04-28T02:04:49.578Z,0
2023-04-28T02:05:50.162Z,0
2023-04-28T02:06:50.775Z,0
2023-04-28T02:07:51.370Z,0
2023-04-28T02:08:51.959Z,0
2023-04-28T02:09:52.573Z,0
2023-04-28T02:10:53.166Z,0
2023-04-28T02:11:53.758Z,0
2023-04-28T02:12:54.353Z,0
2023-04-28T02:13:54.947Z,0
2023-04-28T02:14:55.538Z,0
2023-04-28T02:15:56.188Z,0
2023-04-28T02:16:56.775Z,0
2023-04-28T02:17:57.414Z,0
2023-04-28T02:18:57.974Z,0
2023-04-28T02:19:58.592Z,0
2023-04-28T02:20:59.172Z,0
2023-04-28T02:21:59.788Z,0
2023-04-28T02:23:00.404Z,0
2023-04-28T02:24:00.987Z,0
2023-04-28T02:25:01.616Z,0
2023-04-28T02:26:02.180Z,0
2023-04-28T02:27:02.773Z,0
2023-04-28T02:28:03.364Z,0
2023-04-28T02:29:03.984Z,0
2023-04-28T02:30:04.663Z,0
2023-04-28T02:31:05.333Z,0
2023-04-28T02:32:05.949Z,0
2023-04-28T02:33:06.565Z,0
2023-04-28T02:34:07.150Z,0
2023-04-28T02:35:07.742Z,0
2023-04-28T02:36:08.337Z,0
2023-04-28T02:37:08.928Z,0
2023-04-28T02:38:09.523Z,0
2023-04-28T02:39:10.112Z,0
2023-04-28T02:40:10.735Z,0
2023-04-28T02:41:11.320Z,0
2023-04-28T02:42:11.922Z,0
2023-04-28T02:43:12.512Z,0
2023-04-28T02:44:13.142Z,0
2023-04-28T02:45:13.743Z,0
2023-04-28T02:46:14.424Z,0
2023-04-28T02:47:15.011Z,0
2023-04-28T02:48:15.602Z,0
2023-04-28T02:49:16.239Z,0
2023-04-28T02:50:16.794Z,0
2023-04-28T02:51:17.389Z,0
2023-04-28T02:52:17.978Z,0
2023-04-28T02:53:18.570Z,0
2023-04-28T02:54:19.163Z,0
2023-04-28T02:55:19.756Z,0
2023-04-28T02:56:20.347Z,0
2023-04-28T02:57:20.943Z,0
2023-04-28T02:58:21.542Z,0
2023-04-28T02:59:22.128Z,0
2023-04-28T03:00:22.721Z,0
2023-04-28T03:01:23.331Z,0
2023-04-28T03:02:23.972Z,0
2023-04-28T03:03:24.672Z,0
2023-04-28T03:04:25.358Z,0
2023-04-28T03:05:25.958Z,0
2023-04-28T03:06:26.559Z,0
2023-04-28T03:07:27.169Z,0
2023-04-28T03:08:27.764Z,0
2023-04-28T03:09:28.378Z,0
2023-04-28T03:10:28.968Z,0
2023-04-28T03:11:29.566Z,0
2023-04-28T03:12:30.190Z,0
2023-04-28T03:13:30.795Z,0
2023-04-28T03:14:31.385Z,0
2023-04-28T03:15:32.009Z,0
2023-04-28T03:16:32.668Z,0
2023-04-28T03:17:33.293Z,0
2023-04-28T03:18:33.875Z,0
2023-04-28T03:19:34.472Z,0
2023-04-28T03:20:35.068Z,0
2023-04-28T03:21:35.679Z,0
2023-04-28T03:22:36.272Z,0
2023-04-28T03:23:36.870Z,0
2023-04-28T03:24:37.464Z,0
2023-04-28T03:25:38.050Z,0
2023-04-28T03:26:38.654Z,0
2023-04-28T03:27:39.241Z,0
2023-04-28T03:28:39.838Z,0
2023-04-28T03:29:40.430Z,0
2023-04-28T03:30:41.072Z,0
2023-04-28T03:31:41.655Z,0
2023-04-28T03:32:42.260Z,0
2023-04-28T03:33:42.827Z,0
2023-04-28T03:34:43.432Z,0
2023-04-28T03:35:44.035Z,0
2023-04-28T03:36:44.633Z,0
2023-04-28T03:37:45.229Z,0
2023-04-28T03:38:45.820Z,0
2023-04-28T03:39:46.415Z,0
2023-04-28T03:40:47.014Z,0
2023-04-28T03:41:47.605Z,0
2023-04-28T03:42:48.203Z,0
2023-04-28T03:43:48.794Z,0
2023-04-28T03:44:49.394Z,0
2023-04-28T03:45:49.996Z,0
2023-04-28T03:46:50.579Z,0
2023-04-28T03:47:51.218Z,0
2023-04-28T03:48:51.788Z,0
2023-04-28T03:49:52.407Z,0
2023-04-28T03:50:52.995Z,0
2023-04-28T03:51:53.594Z,0
2023-04-28T03:52:54.208Z,0
2023-04-28T03:53:54.801Z,0
2023-04-28T03:54:55.403Z,5
2023-04-28T03:55:55.988Z,5
2023-04-28T03:56:56.602Z,5
2023-04-28T03:57:57.197Z,5
2023-04-28T03:58:57.799Z,5
2023-04-28T03:59:58.415Z,5
2023-04-28T04:00:59.017Z,5
2023-04-28T04:01:59.601Z,5
2023-04-28T04:03:00.463Z,5
2023-04-28T04:04:01.335Z,5
2023-04-28T04:05:02.341Z,5
2023-04-28T04:06:03.049Z,5
2023-04-28T04:07:03.653Z,5
2023-04-28T04:08:04.245Z,11
2023-04-28T04:09:04.840Z,11
2023-04-28T04:10:05.445Z,11
2023-04-28T04:11:06.033Z,11
2023-04-28T04:12:06.625Z,11
2023-04-28T04:13:07.222Z,11
2023-04-28T04:14:07.818Z,11
2023-04-28T04:15:08.417Z,16
2023-04-28T04:16:09.080Z,16
2023-04-28T04:17:09.652Z,16
2023-04-28T04:18:10.352Z,16
2023-04-28T04:19:10.857Z,22
2023-04-28T04:20:11.470Z,22
2023-04-28T04:21:12.069Z,22
2023-04-28T04:22:12.664Z,28
2023-04-28T04:23:13.260Z,28
2023-04-28T04:24:13.898Z,33
2023-04-28T04:25:14.543Z,33
2023-04-28T04:26:15.092Z,33
2023-04-28T04:27:15.686Z,39
2023-04-28T04:28:16.283Z,39
2023-04-28T04:29:16.949Z,39
2023-04-28T04:30:17.481Z,45
2023-04-28T04:31:18.121Z,45
2023-04-28T04:32:18.692Z,50
2023-04-28T04:33:19.309Z,50
2023-04-28T04:34:19.903Z,50
2023-04-28T04:35:20.520Z,56
2023-04-28T04:36:21.120Z,56
2023-04-28T04:37:21.719Z,61
2023-04-28T04:38:22.315Z,67
2023-04-28T04:39:22.916Z,67
2023-04-28T04:40:23.531Z,73
2023-04-28T04:41:24.129Z,78
2023-04-28T04:42:25.973Z,73
2023-04-28T04:43:26.365Z,73
2023-04-28T04:44:26.936Z,78
2023-04-28T04:45:27.538Z,78
2023-04-28T04:46:28.155Z,78
2023-04-28T04:47:28.777Z,78
2023-04-28T04:48:29.330Z,78
2023-04-28T04:49:29.927Z,84
2023-04-28T04:50:30.524Z,84
2023-04-28T04:51:31.124Z,90
2023-04-28T04:52:31.739Z,95
2023-04-28T04:53:32.366Z,101
2023-04-28T04:54:32.968Z,106
2023-04-28T04:55:33.567Z,112
2023-04-28T04:56:34.152Z,118
2023-04-28T04:57:34.765Z,123
2023-04-28T04:58:35.351Z,129
2023-04-28T04:59:35.955Z,135
2023-04-28T05:00:36.546Z,140
2023-04-28T05:01:37.218Z,140
2023-04-28T05:02:37.963Z,146
2023-04-28T05:03:38.693Z,151
2023-04-28T05:04:39.489Z,151
2023-04-28T05:05:40.104Z,157
2023-04-28T05:06:40.724Z,163
2023-04-28T05:07:41.317Z,174
2023-04-28T05:08:41.916Z,185
2023-04-28T05:09:42.532Z,191
2023-04-28T05:10:43.129Z,196
2023-04-28T05:11:43.737Z,208
2023-04-28T05:12:45.447Z,213
2023-04-28T05:13:45.921Z,225
2023-04-28T05:14:46.543Z,241
2023-04-28T05:15:47.162Z,247
2023-04-28T05:16:47.831Z,264
2023-04-28T05:17:48.469Z,275
2023-04-28T05:18:49.010Z,286
2023-04-28T05:19:49.611Z,298
2023-04-28T05:20:50.210Z,303
2023-04-28T05:21:50.809Z,303
2023-04-28T05:22:51.409Z,303
2023-04-28T05:23:52.008Z,309
2023-04-28T05:24:52.608Z,320
2023-04-28T05:25:53.205Z,326
2023-04-28T05:26:53.801Z,337
2023-04-28T05:27:54.398Z,343
2023-04-28T05:28:54.995Z,348
2023-04-28T05:29:55.594Z,360
2023-04-28T05:30:56.189Z,365
2023-04-28T05:31:56.844Z,376
2023-04-28T05:32:57.450Z,382
2023-04-28T05:33:58.038Z,388
2023-04-28T05:34:58.657Z,399
2023-04-28T05:35:59.239Z,405
2023-04-28T05:36:59.840Z,410
2023-04-28T05:38:00.485Z,421
2023-04-28T05:39:01.096Z,433
2023-04-28T05:40:01.719Z,455
2023-04-28T05:41:02.336Z,472
2023-04-28T05:42:02.933Z,489
2023-04-28T05:43:03.542Z,506
2023-04-28T05:44:04.133Z,523
2023-04-28T05:45:04.732Z,534
2023-04-28T05:46:12.084Z,534
2023-04-28T05:47:05.954Z,523
2023-04-28T05:48:06.569Z,506
2023-04-28T05:49:07.169Z,478
2023-04-28T05:50:07.764Z,455
2023-04-28T05:51:08.376Z,427
2023-04-28T05:52:08.968Z,399
2023-04-28T05:53:09.564Z,382
2023-04-28T05:54:10.184Z,365
2023-04-28T05:55:10.767Z,360
2023-04-28T05:56:11.391Z,360
2023-04-28T05:57:11.982Z,365
2023-04-28T05:58:12.582Z,382
2023-04-28T05:59:13.206Z,399
2023-04-28T06:00:13.781Z,416
2023-04-28T06:01:14.381Z,433
2023-04-28T06:02:15.081Z,438
2023-04-28T06:03:15.814Z,438
2023-04-28T06:04:16.719Z,433
2023-04-28T06:05:18.109Z,433
2023-04-28T06:06:18.948Z,427
2023-04-28T06:07:19.454Z,427
2023-04-28T06:08:20.073Z,427
2023-04-28T06:09:20.672Z,421
2023-04-28T06:10:21.275Z,421
2023-04-28T06:11:21.871Z,421
2023-04-28T06:12:22.479Z,427
2023-04-28T06:13:23.072Z,438
2023-04-28T06:14:23.675Z,450
2023-04-28T06:15:24.293Z,461
2023-04-28T06:16:24.965Z,472
2023-04-28T06:17:25.554Z,489
2023-04-28T06:18:26.141Z,506
2023-04-28T06:19:26.758Z,528
2023-04-28T06:20:27.392Z,556
2023-04-28T06:21:27.955Z,579
2023-04-28T06:22:28.552Z,601
2023-04-28T06:23:29.152Z,618
2023-04-28T06:24:29.762Z,635
2023-04-28T06:25:30.358Z,658
2023-04-28T06:26:30.970Z,669
2023-04-28T06:27:31.578Z,680
2023-04-28T06:28:32.194Z,703
2023-04-28T06:29:32.800Z,714
2023-04-28T06:30:33.399Z,725
2023-04-28T06:31:34.037Z,725
2023-04-28T06:32:34.630Z,714
2023-04-28T06:33:35.189Z,697
2023-04-28T06:34:35.798Z,686
2023-04-28T06:35:36.404Z,691
2023-04-28T06:36:37.023Z,691
2023-04-28T06:37:37.626Z,703
2023-04-28T06:38:38.222Z,720
2023-04-28T06:39:38.828Z,725
2023-04-28T06:40:39.425Z,725
2023-04-28T06:41:40.088Z,725
2023-04-28T06:42:40.641Z,725
2023-04-28T06:43:41.240Z,720
2023-04-28T06:44:41.840Z,708
2023-04-28T06:45:42.444Z,691
2023-04-28T06:46:43.132Z,680
2023-04-28T06:47:43.719Z,669
2023-04-28T06:48:44.305Z,663
2023-04-28T06:49:44.923Z,663
2023-04-28T06:50:45.548Z,663
2023-04-28T06:51:46.172Z,663
2023-04-28T06:52:46.764Z,663
2023-04-28T06:53:47.366Z,658
2023-04-28T06:54:47.984Z,652
2023-04-28T06:55:48.586Z,652
2023-04-28T06:56:49.188Z,652
2023-04-28T06:57:49.792Z,663
2023-04-28T06:58:50.384Z,675
2023-04-28T06:59:50.986Z,691
2023-04-28T07:00:51.666Z,714
2023-04-28T07:01:52.266Z,742
2023-04-28T07:02:53.036Z,765
2023-04-28T07:03:53.514Z,781
2023-04-28T07:04:54.161Z,798
2023-04-28T07:05:54.781Z,815
2023-04-28T07:06:55.387Z,821
2023-04-28T07:07:55.979Z,832
2023-04-28T07:08:56.578Z,843
2023-04-28T07:09:57.183Z,866
2023-04-28T07:10:57.798Z,894
2023-04-28T07:11:58.395Z,928
2023-04-28T07:12:59.447Z,945
2023-04-28T07:14:00.062Z,967
2023-04-28T07:15:00.680Z,995
2023-04-28T07:16:01.332Z,995
2023-04-28T07:17:01.898Z,1006
2023-04-28T07:18:02.549Z,1023
2023-04-28T07:19:03.136Z,1029
2023-04-28T07:20:03.765Z,1046
2023-04-28T07:21:05.631Z,1057
2023-04-28T07:22:05.944Z,1068
2023-04-28T07:23:06.552Z,1080
2023-04-28T07:24:07.143Z,1080
2023-04-28T07:25:07.743Z,1057
2023-04-28T07:26:08.360Z,1051
2023-04-28T07:27:08.957Z,1029
2023-04-28T07:28:09.553Z,984
2023-04-28T07:29:10.172Z,928
2023-04-28T07:30:25.004Z,877
2023-04-28T07:31:12.406Z,849
2023-04-28T07:32:13.097Z,849
2023-04-28T07:33:13.738Z,849
2023-04-28T07:34:14.539Z,849
2023-04-28T07:35:15.262Z,838
2023-04-28T07:36:15.862Z,821
2023-04-28T07:37:16.492Z,793
2023-04-28T07:38:17.086Z,765
2023-04-28T07:39:17.677Z,736
2023-04-28T07:40:18.320Z,708
2023-04-28T07:41:18.912Z,686
2023-04-28T07:42:19.515Z,663
2023-04-28T07:43:20.110Z,658
2023-04-28T07:44:20.849Z,658
2023-04-28T07:45:21.457Z,680
2023-04-28T07:46:22.116Z,714
2023-04-28T07:47:22.677Z,759
2023-04-28T07:48:23.285Z,787
2023-04-28T07:49:23.901Z,804
2023-04-28T07:50:24.501Z,776
2023-04-28T07:51:25.096Z,703
2023-04-28T07:52:25.713Z,641
2023-04-28T07:53:26.328Z,618
2023-04-28T07:54:26.929Z,635
2023-04-28T07:55:27.551Z,680
2023-04-28T07:56:28.150Z,714
2023-04-28T07:57:28.767Z,736
2023-04-28T07:58:29.368Z,736
2023-04-28T07:59:29.965Z,714
2023-04-28T08:00:30.563Z,697
2023-04-28T08:01:31.180Z,680
2023-04-28T08:02:31.927Z,663
2023-04-28T08:03:32.938Z,652
2023-04-28T08:04:33.802Z,652
2023-04-28T08:05:34.389Z,663
2023-04-28T08:06:34.881Z,686
2023-04-28T08:07:35.498Z,708
2023-04-28T08:08:36.120Z,731
2023-04-28T08:09:36.734Z,759
2023-04-28T08:10:37.388Z,787
2023-04-28T08:11:37.952Z,826
2023-04-28T08:12:38.590Z,860
2023-04-28T08:13:39.194Z,888
2023-04-28T08:14:39.797Z,928
2023-04-28T08:15:40.429Z,961
2023-04-28T08:16:41.015Z,990
2023-04-28T08:17:41.661Z,1006
2023-04-28T08:18:42.274Z,1018
2023-04-28T08:19:42.847Z,1012
2023-04-28T08:20:43.451Z,1006
2023-04-28T08:21:44.050Z,1012
2023-04-28T08:22:44.671Z,1006
2023-04-28T08:23:45.269Z,995
2023-04-28T08:24:45.872Z,984
2023-04-28T08:25:46.492Z,967
2023-04-28T08:26:47.093Z,956
2023-04-28T08:27:47.692Z,945
2023-04-28T08:28:48.290Z,950
2023-04-28T08:29:48.889Z,950
2023-04-28T08:30:49.486Z,945
2023-04-28T08:31:50.097Z,933
2023-04-28T08:32:50.777Z,928
2023-04-28T08:33:51.395Z,933
2023-04-28T08:34:51.995Z,933
2023-04-28T08:35:52.585Z,928
2023-04-28T08:36:53.186Z,928
2023-04-28T08:37:53.789Z,922
2023-04-28T08:38:54.388Z,916
2023-04-28T08:39:55.008Z,916
2023-04-28T08:40:55.612Z,933
2023-04-28T08:41:56.228Z,961
2023-04-28T08:42:56.850Z,995
2023-04-28T08:43:57.462Z,1035
2023-04-28T08:44:58.062Z,1063
2023-04-28T08:45:58.659Z,1091
2023-04-28T08:46:59.393Z,1102
2023-04-28T08:47:59.900Z,1096
2023-04-28T08:49:00.488Z,1102
2023-04-28T08:50:01.089Z,1113
2023-04-28T08:51:01.684Z,1141
2023-04-28T08:52:02.307Z,1181
2023-04-28T08:53:02.929Z,1209
2023-04-28T08:54:29.484Z,1231
2023-04-28T08:55:05.044Z,1248
2023-04-28T08:56:05.664Z,1260
2023-04-28T08:57:06.285Z,1243
2023-04-28T08:58:06.903Z,1158
2023-04-28T08:59:07.525Z,1046
2023-04-28T09:00:08.146Z,950
2023-04-28T09:01:08.747Z,877
2023-04-28T09:02:09.497Z,832
2023-04-28T09:03:10.372Z,815
2023-04-28T09:04:12.696Z,793
2023-04-28T09:05:11.576Z,765
2023-04-28T09:06:12.488Z,725
2023-04-28T09:07:13.131Z,697
2023-04-28T09:08:13.697Z,691
2023-04-28T09:09:14.309Z,680
2023-04-28T09:10:14.898Z,669
2023-04-28T09:11:15.499Z,646
2023-04-28T09:12:16.098Z,624
2023-04-28T09:13:16.717Z,601
2023-04-28T09:14:17.605Z,590
2023-04-28T09:15:18.412Z,590
2023-04-28T09:16:19.080Z,596
2023-04-28T09:17:19.671Z,613
2023-04-28T09:18:20.277Z,624
2023-04-28T09:19:20.869Z,635
2023-04-28T09:20:21.468Z,630
2023-04-28T09:21:22.069Z,613
2023-04-28T09:22:26.731Z,601
2023-04-28T09:23:23.290Z,601
2023-04-28T09:24:23.881Z,607
2023-04-28T09:25:24.479Z,618
2023-04-28T09:26:25.094Z,641
2023-04-28T09:27:25.694Z,669
2023-04-28T09:28:26.316Z,697
2023-04-28T09:29:26.914Z,736
2023-04-28T09:30:27.510Z,776
2023-04-28T09:31:28.289Z,810
2023-04-28T09:32:28.950Z,838
2023-04-28T09:33:29.693Z,855
2023-04-28T09:34:30.267Z,855
2023-04-28T09:35:30.881Z,849
2023-04-28T09:36:31.481Z,855
2023-04-28T09:37:32.099Z,855
2023-04-28T09:38:32.729Z,860
2023-04-28T09:39:33.327Z,855
2023-04-28T09:40:33.944Z,855
2023-04-28T09:41:34.529Z,838
2023-04-28T09:42:35.181Z,815
2023-04-28T09:43:35.757Z,787
2023-04-28T09:44:36.350Z,781
2023-04-28T09:45:36.984Z,798
2023-04-28T09:46:37.547Z,826
2023-04-28T09:47:38.156Z,849
2023-04-28T09:48:38.790Z,849
2023-04-28T09:49:39.364Z,821
2023-04-28T09:50:39.965Z,798
2023-04-28T09:51:40.582Z,793
2023-04-28T09:52:41.182Z,793
2023-04-28T09:53:41.781Z,793
2023-04-28T09:54:42.381Z,753
2023-04-28T09:55:42.982Z,731
2023-04-28T09:56:43.582Z,731
2023-04-28T09:57:44.178Z,736
2023-04-28T09:58:44.779Z,759
2023-04-28T09:59:45.394Z,781
2023-04-28T10:00:45.981Z,815
2023-04-28T10:01:46.715Z,860
2023-04-28T10:02:47.366Z,900
2023-04-28T10:03:48.335Z,928
2023-04-28T10:04:49.127Z,928
2023-04-28T10:05:49.439Z,945
2023-04-28T10:06:50.056Z,1001
2023-04-28T10:07:50.659Z,1040
2023-04-28T10:08:51.278Z,1085
2023-04-28T10:09:51.877Z,1113
2023-04-28T10:10:52.478Z,1136
2023-04-28T10:11:53.080Z,1175
2023-04-28T10:12:53.697Z,1237
2023-04-28T10:13:54.308Z,1293
2023-04-28T10:14:54.905Z,1333
2023-04-28T10:15:55.696Z,1327
2023-04-28T10:16:56.119Z,1310
2023-04-28T10:17:56.789Z,1254
2023-04-28T10:18:57.353Z,1198
2023-04-28T10:19:57.954Z,1113
2023-04-28T10:20:58.608Z,1012
2023-04-28T10:21:59.174Z,928
2023-04-28T10:22:59.776Z,866
2023-04-28T10:24:00.404Z,849
2023-04-28T10:25:01.020Z,911
2023-04-28T10:26:01.629Z,1046
2023-04-28T10:27:02.218Z,1203
2023-04-28T10:28:02.815Z,1344
2023-04-28T10:29:03.422Z,1440
2023-04-28T10:30:08.265Z,1451
2023-04-28T10:31:05.659Z,1378
2023-04-28T10:32:06.232Z,1248
2023-04-28T10:33:06.928Z,1181
2023-04-28T10:34:07.484Z,1181
2023-04-28T10:35:08.102Z,1198
2023-04-28T10:36:09.030Z,1215
2023-04-28T10:37:09.546Z,1237
2023-04-28T10:38:10.140Z,1231
2023-04-28T10:39:10.768Z,1226
2023-04-28T10:40:11.390Z,1237
2023-04-28T10:41:11.989Z,1265
2023-04-28T10:42:12.594Z,1310
2023-04-28T10:43:13.209Z,1344
2023-04-28T10:44:13.811Z,1361
2023-04-28T10:45:14.414Z,1271
2023-04-28T10:46:15.097Z,1113
2023-04-28T10:47:15.635Z,1001
2023-04-28T10:48:16.251Z,939
2023-04-28T10:49:16.852Z,916
2023-04-28T10:50:18.688Z,900
2023-04-28T10:51:19.046Z,905
2023-04-28T10:52:19.644Z,939
2023-04-28T10:53:20.266Z,950
2023-04-28T10:54:20.864Z,916
2023-04-28T10:55:22.383Z,866
2023-04-28T10:56:23.053Z,804
2023-04-28T10:57:23.653Z,765
2023-04-28T10:58:24.252Z,720
2023-04-28T10:59:24.880Z,697
2023-04-28T11:00:25.501Z,680
2023-04-28T11:01:26.191Z,658
2023-04-28T11:02:26.891Z,635
2023-04-28T11:03:27.870Z,630
2023-04-28T11:04:28.913Z,618
2023-04-28T11:05:29.540Z,607
2023-04-28T11:06:30.160Z,585
2023-04-28T11:07:30.756Z,568
2023-04-28T11:08:31.357Z,545
2023-04-28T11:09:31.960Z,534
2023-04-28T11:10:32.558Z,528
2023-04-28T11:11:33.177Z,528
2023-04-28T11:12:33.791Z,545
2023-04-28T11:13:34.545Z,551
2023-04-28T11:14:35.247Z,556
2023-04-28T11:15:35.813Z,568
2023-04-28T11:16:36.426Z,556
2023-04-28T11:17:37.041Z,534
2023-04-28T11:18:37.609Z,534
2023-04-28T11:19:38.217Z,551
2023-04-28T11:20:38.832Z,573
2023-04-28T11:21:39.433Z,601
2023-04-28T11:22:40.035Z,630
2023-04-28T11:23:40.633Z,630
2023-04-28T11:24:41.229Z,624
2023-04-28T11:25:41.854Z,635
2023-04-28T11:26:42.481Z,641
2023-04-28T11:27:43.072Z,646
2023-04-28T11:28:43.675Z,697
2023-04-28T11:29:44.273Z,759
2023-04-28T11:30:44.871Z,826
2023-04-28T11:31:45.510Z,810
2023-04-28T11:32:46.106Z,798
2023-04-28T11:33:46.710Z,843
2023-04-28T11:34:47.317Z,905
2023-04-28T11:35:47.911Z,933
2023-04-28T11:36:48.527Z,956
2023-04-28T11:37:49.199Z,967
2023-04-28T11:38:49.787Z,990
2023-04-28T11:39:50.389Z,1057
2023-04-28T11:40:51.038Z,1130
2023-04-28T11:41:51.614Z,1170
2023-04-28T11:42:52.217Z,1248
2023-04-28T11:43:52.816Z,1321
2023-04-28T11:44:53.418Z,1378
2023-04-28T11:45:54.078Z,1479
2023-04-28T11:46:54.640Z,1631
2023-04-28T11:47:55.321Z,1648
2023-04-28T11:48:55.853Z,1597
2023-04-28T11:49:56.481Z,1676
2023-04-28T11:50:57.133Z,1721
2023-04-28T11:51:57.701Z,1698
2023-04-28T11:52:58.300Z,1648
2023-04-28T11:53:58.918Z,1546
2023-04-28T11:54:59.501Z,1456
2023-04-28T11:56:00.120Z,1355
2023-04-28T11:57:00.897Z,1271
2023-04-28T11:58:01.603Z,1231
2023-04-28T11:59:03.790Z,1248
2023-04-28T12:00:02.824Z,1293
2023-04-28T12:01:03.423Z,1310
2023-04-28T12:02:04.153Z,1333
2023-04-28T12:03:04.842Z,1395
2023-04-28T12:04:05.516Z,1406
2023-04-28T12:05:06.216Z,1361
2023-04-28T12:06:06.808Z,1305
2023-04-28T12:07:07.410Z,1215
2023-04-28T12:08:08.013Z,1158
2023-04-28T12:09:08.617Z,1153
2023-04-28T12:10:09.278Z,1136
2023-04-28T12:11:09.899Z,1085
2023-04-28T12:12:10.497Z,1029
2023-04-28T12:13:11.103Z,1006
2023-04-28T12:14:11.712Z,1023
2023-04-28T12:15:12.300Z,1063
2023-04-28T12:16:12.945Z,1080
2023-04-28T12:17:13.542Z,1074
2023-04-28T12:18:14.144Z,1085
2023-04-28T12:19:14.744Z,1085
2023-04-28T12:20:15.342Z,1091
2023-04-28T12:21:15.942Z,1091
2023-04-28T12:22:16.547Z,1119
2023-04-28T12:23:17.168Z,1181
2023-04-28T12:24:17.796Z,1209
2023-04-28T12:25:18.408Z,1226
2023-04-28T12:26:19.007Z,1271
2023-04-28T12:27:19.607Z,1299
2023-04-28T12:28:20.232Z,1254
2023-04-28T12:29:20.829Z,1192
2023-04-28T12:30:21.432Z,1175
2023-04-28T12:31:22.058Z,1147
2023-04-28T12:32:22.635Z,1096
2023-04-28T12:33:23.234Z,1029
2023-04-28T12:34:23.851Z,1001
2023-04-28T12:35:24.482Z,950
2023-04-28T12:36:25.084Z,911
2023-04-28T12:37:25.683Z,877
2023-04-28T12:38:26.291Z,860
2023-04-28T12:39:26.881Z,855
2023-04-28T12:40:27.536Z,883
2023-04-28T12:41:28.109Z,928
2023-04-28T12:42:28.735Z,956
2023-04-28T12:43:29.330Z,945
2023-04-28T12:44:29.933Z,933
2023-04-28T12:45:30.553Z,956
2023-04-28T12:46:31.165Z,967
2023-04-28T12:47:31.785Z,945
2023-04-28T12:48:32.361Z,905
2023-04-28T12:49:32.963Z,894
2023-04-28T12:50:33.556Z,883
2023-04-28T12:51:34.153Z,888
2023-04-28T12:52:34.754Z,900
2023-04-28T12:53:35.353Z,922
2023-04-28T12:54:35.954Z,956
2023-04-28T12:55:36.553Z,984
2023-04-28T12:56:37.156Z,1001
2023-04-28T12:57:39.478Z,990
2023-04-28T12:58:39.345Z,1012
2023-04-28T12:59:39.958Z,1057
2023-04-28T13:00:40.550Z,1085
2023-04-28T13:01:41.153Z,1108
2023-04-28T13:02:41.895Z,1119
2023-04-28T13:03:42.652Z,1096
2023-04-28T13:04:43.432Z,1023
2023-04-28T13:05:44.050Z,939
2023-04-28T13:06:44.649Z,894
2023-04-28T13:07:45.261Z,950
2023-04-28T13:08:45.848Z,1023
2023-04-28T13:09:46.783Z,1006
2023-04-28T13:10:47.704Z,995
2023-04-28T13:11:48.320Z,1023
2023-04-28T13:12:48.922Z,1023
2023-04-28T13:13:49.548Z,1023
2023-04-28T13:14:50.171Z,1046
2023-04-28T13:15:50.797Z,1091
2023-04-28T13:16:51.364Z,1091
2023-04-28T13:17:52.011Z,1063
2023-04-28T13:18:52.672Z,1018
2023-04-28T13:19:53.266Z,995
2023-04-28T13:20:53.886Z,990
2023-04-28T13:21:54.502Z,967
2023-04-28T13:22:55.106Z,961
2023-04-28T13:23:55.702Z,1012
2023-04-28T13:24:56.306Z,1091
2023-04-28T13:25:56.906Z,1153
2023-04-28T13:26:57.510Z,1186
2023-04-28T13:27:58.177Z,1186
2023-04-28T13:28:58.778Z,1164
2023-04-28T13:29:59.449Z,1175
2023-04-28T13:31:00.026Z,1260
2023-04-28T13:32:00.712Z,1355
2023-04-28T13:33:01.360Z,1411
2023-04-28T13:34:01.986Z,1479
2023-04-28T13:35:02.555Z,1501
2023-04-28T13:36:03.155Z,1468
2023-04-28T13:37:03.752Z,1496
2023-04-28T13:38:04.355Z,1513
2023-04-28T13:39:04.996Z,1507
2023-04-28T13:40:05.653Z,1569
2023-04-28T13:41:06.211Z,1676
2023-04-28T13:42:06.874Z,1822
2023-04-28T13:43:07.469Z,1951
2023-04-28T13:44:08.086Z,1850
2023-04-28T13:45:08.689Z,1631
2023-04-28T13:46:09.375Z,1411
2023-04-28T13:47:09.965Z,1203
2023-04-28T13:48:10.594Z,1063
2023-04-28T13:49:11.223Z,1006
2023-04-28T13:50:11.816Z,1040
2023-04-28T13:51:12.448Z,1125
2023-04-28T13:52:13.102Z,1226
2023-04-28T13:53:13.676Z,1293
2023-04-28T13:54:14.273Z,1383
2023-04-28T13:55:14.890Z,1586
2023-04-28T13:56:15.482Z,1726
2023-04-28T13:57:16.086Z,1957
2023-04-28T13:58:16.705Z,2058
2023-04-28T13:59:17.318Z,2058
2023-04-28T14:00:17.924Z,2368
2023-04-28T14:01:18.540Z,2542
2023-04-28T14:02:19.288Z,2036
2023-04-28T14:03:19.916Z,1873
2023-04-28T14:04:20.748Z,1721
2023-04-28T14:05:21.413Z,1591
2023-04-28T14:06:22.032Z,1473
2023-04-28T14:07:22.633Z,1372